Time;durP1;ratioP1;P1;durP2;ratioP2;P2;SDS_P1;SDS_P2;PMS_P1;PMS_P2;Temp;Humidity;BMP_temperature;BMP_pressure;BME280_temperature;BME280_humidity;BME280_pressure;Samples;Min_cycle;Max_cycle;Signal;HPM_P1;HPM_P2
2022/10/11 00:02:01;;;;;;;15.65;8.95;;;;;;;12.84;100.00;100954.69;5050417;28;20059;-81
2022/10/11 00:04:27;;;;;;;15.25;9.02;;;;;;;12.86;100.00;100968.78;5046432;28;20041;-85
2022/10/11 00:06:54;;;;;;;14.50;9.45;;;;;;;12.64;100.00;100943.22;5048318;28;20061;-81
2022/10/11 00:09:21;;;;;;;18.20;10.13;;;;;;;12.73;100.00;100965.84;5050281;28;20056;-80
2022/10/11 00:11:48;;;;;;;20.55;11.57;;;;;;;12.75;100.00;100974.59;5047831;28;20044;-78
2022/10/11 00:14:14;;;;;;;18.55;10.00;;;;;;;12.73;100.00;100983.59;5054923;28;20055;-81
2022/10/11 00:16:43;;;;;;;18.50;10.18;;;;;;;12.55;100.00;100961.38;5051116;28;20052;-76
2022/10/11 00:19:10;;;;;;;17.58;10.40;;;;;;;12.60;100.00;100992.09;5047881;28;20060;-80
2022/10/11 00:21:36;;;;;;;15.98;10.60;;;;;;;12.53;100.00;100984.50;5033577;28;20053;-76
2022/10/11 00:24:03;;;;;;;22.30;11.30;;;;;;;12.39;100.00;100970.97;5051086;28;20839;-83
2022/10/11 00:26:30;;;;;;;23.27;11.68;;;;;;;12.47;100.00;100995.38;5050199;28;20049;-80
2022/10/11 00:28:57;;;;;;;21.90;11.38;;;;;;;12.49;100.00;101006.81;5047818;28;20048;-84
2022/10/11 00:31:23;;;;;;;19.90;11.27;;;;;;;12.46;100.00;100991.00;5049461;28;20441;-84
2022/10/11 00:33:52;;;;;;;20.50;11.45;;;;;;;12.33;100.00;100984.53;5047862;28;20041;-79
2022/10/11 00:36:19;;;;;;;19.98;11.63;;;;;;;12.44;100.00;101008.81;5044330;28;20052;-83
2022/10/11 00:38:45;;;;;;;21.63;12.13;;;;;;;12.40;100.00;101012.56;5052426;28;20420;-71
2022/10/11 00:41:13;;;;;;;21.15;12.73;;;;;;;12.35;100.00;101007.44;5047286;28;20048;-76
2022/10/11 00:43:40;;;;;;;23.02;12.48;;;;;;;12.22;100.00;100992.97;5045200;28;20360;-77
2022/10/11 00:46:26;;;;;;;20.50;12.10;;;;;;;12.39;100.00;101024.97;5040094;28;20488;-72
2022/10/11 00:48:59;;;;;;;17.48;10.77;;;;;;;12.34;100.00;101021.66;5047128;28;20040;-75
2022/10/11 00:51:42;;;;;;;18.73;11.82;;;;;;;12.36;100.00;101021.56;5045126;28;20045;-83
2022/10/11 00:54:13;;;;;;;21.88;12.00;;;;;;;12.29;100.00;101018.31;5045939;28;20063;-80
2022/10/11 00:56:42;;;;;;;20.25;11.50;;;;;;;12.32;100.00;101033.25;5047506;28;20051;-84
2022/10/11 00:59:17;;;;;;;17.02;10.68;;;;;;;12.29;100.00;101029.81;5048774;28;20075;-82
2022/10/11 01:01:43;;;;;;;20.05;10.98;;;;;;;12.24;100.00;101026.50;5048280;28;20113;-82
2022/10/11 01:04:10;;;;;;;19.80;12.23;;;;;;;12.18;100.00;101024.09;5050290;28;20932;-82
2022/10/11 01:06:36;;;;;;;20.73;11.82;;;;;;;12.09;100.00;101016.56;5049059;28;20055;-80
2022/10/11 01:09:03;;;;;;;18.48;11.80;;;;;;;12.14;100.00;101035.78;5047957;28;20053;-83
2022/10/11 01:11:30;;;;;;;21.20;11.77;;;;;;;11.98;100.00;101015.28;5051200;28;20052;-76
2022/10/11 01:14:05;;;;;;;18.45;9.82;;;;;;;12.08;100.00;101035.19;5048160;28;20056;-78
2022/10/11 01:16:46;;;;;;;14.35;9.40;;;;;;;11.86;100.00;101022.84;5050946;28;20057;-78
2022/10/11 01:19:37;;;;;;;14.05;9.57;;;;;;;11.97;100.00;101054.22;5053287;28;20044;-82
2022/10/11 01:22:37;;;;;;;15.13;9.07;;;;;;;11.91;100.00;101057.16;5049071;28;20049;-80
2022/10/11 01:25:16;;;;;;;15.25;9.00;;;;;;;11.84;100.00;101056.53;5040196;28;20532;-82
2022/10/11 01:28:01;;;;;;;13.68;7.97;;;;;;;11.77;100.00;101059.53;5052903;28;20696;-72
2022/10/11 01:30:30;;;;;;;15.20;8.35;;;;;;;11.71;100.00;101060.59;5052500;28;20057;-82
2022/10/11 01:33:01;;;;;;;9.90;7.30;;;;;;;11.64;100.00;101060.91;5051762;28;20064;-83
2022/10/11 01:35:40;;;;;;;11.88;6.40;;;;;;;11.43;100.00;101046.72;5053739;28;20063;-76
2022/10/11 01:38:10;;;;;;;9.80;6.00;;;;;;;11.55;100.00;101070.97;5054083;28;20041;-84
2022/10/11 01:40:51;;;;;;;10.07;5.55;;;;;;;11.53;100.00;101071.94;5037666;28;20049;-82
2022/10/11 01:43:19;;;;;;;7.03;4.25;;;;;;;11.36;100.00;101046.09;5047054;28;20053;-81
2022/10/11 01:45:50;;;;;;;6.18;4.03;;;;;;;11.41;100.00;101075.94;5050315;28;20048;-77
2022/10/11 01:48:16;;;;;;;6.82;3.40;;;;;;;11.38;100.00;101084.03;5049046;28;20041;-83
2022/10/11 01:50:50;;;;;;;5.45;2.90;;;;;;;11.30;100.00;101088.78;5047560;28;20057;-79
2022/10/11 01:53:44;;;;;;;5.65;2.42;;;;;;;11.31;100.00;101087.84;5055739;28;20045;-79
2022/10/11 01:56:29;;;;;;;9.02;2.35;;;;;;;11.25;100.00;101088.09;5059815;28;20075;-81
2022/10/11 01:59:31;;;;;;;9.05;2.50;;;;;;;11.22;100.00;101090.84;5061171;28;20121;-80
2022/10/11 02:02:09;;;;;;;6.97;2.38;;;;;;;11.17;100.00;101098.13;5040574;28;20113;-74
2022/10/11 02:04:48;;;;;;;6.32;1.92;;;;;;;11.02;100.00;101081.00;5066148;28;20072;-77
2022/10/11 02:07:23;;;;;;;4.47;1.85;;;;;;;11.14;100.00;101101.75;5068442;28;20049;-81
2022/10/11 02:09:59;;;;;;;7.07;2.03;;;;;;;11.07;100.00;101099.38;5053070;28;20053;-83
2022/10/11 02:12:38;;;;;;;7.85;2.45;;;;;;;11.02;100.00;101107.50;5048996;28;20059;-77
2022/10/11 02:15:08;;;;;;;10.52;2.42;;;;;;;10.85;100.00;101086.97;5047239;28;21658;-75
2022/10/11 02:17:40;;;;;;;6.70;2.15;;;;;;;10.79;100.00;101088.94;5054134;28;20055;-77
2022/10/11 02:20:13;;;;;;;5.50;2.22;;;;;;;10.84;100.00;101105.56;5053354;28;20053;-83
2022/10/11 02:22:44;;;;;;;8.18;2.03;;;;;;;10.72;100.00;101090.09;5049053;28;20556;-83
2022/10/11 02:25:18;;;;;;;11.63;2.25;;;;;;;10.84;100.00;101110.84;5057032;28;20044;-81
2022/10/11 02:27:47;;;;;;;7.45;2.53;;;;;;;10.65;100.00;101083.31;5058595;28;20049;-77
2022/10/11 02:30:14;;;;;;;6.60;2.25;;;;;;;10.81;100.00;101117.13;5062024;28;20047;-84
2022/10/11 02:32:43;;;;;;;6.70;1.65;;;;;;;10.61;100.00;101089.63;5056621;28;20060;-75
2022/10/11 02:35:11;;;;;;;6.35;2.10;;;;;;;10.59;100.00;101115.28;5052501;28;20127;-78
2022/10/11 02:38:11;;;;;;;9.18;2.10;;;;;;;10.50;100.00;101122.66;5053771;28;20049;-74
2022/10/11 02:40:43;;;;;;;9.05;2.13;;;;;;;10.46;100.00;101120.16;5064065;28;20761;-74
2022/10/11 02:43:18;;;;;;;9.55;2.22;;;;;;;10.27;100.00;101089.94;5064071;28;20045;-82
2022/10/11 02:45:56;;;;;;;9.45;1.95;;;;;;;10.26;100.00;101097.00;5059556;28;20053;-71
2022/10/11 02:48:26;;;;;;;7.50;1.83;;;;;;;10.40;100.00;101118.56;5067015;28;20055;-82
2022/10/11 02:50:54;;;;;;;9.25;1.88;;;;;;;10.16;100.00;101090.28;5063235;28;20429;-81
2022/10/11 02:53:23;;;;;;;8.63;1.55;;;;;;;10.24;100.00;101122.66;5067907;28;20048;-72
2022/10/11 02:55:52;;;;;;;9.15;1.67;;;;;;;10.06;100.00;101095.03;5063465;28;20048;-74
2022/10/11 02:58:19;;;;;;;13.05;2.00;;;;;;;10.23;100.00;101133.34;5058358;28;20484;-82
2022/10/11 03:00:45;;;;;;;6.85;1.92;;;;;;;10.08;100.00;101114.34;5051051;28;20052;-76
2022/10/11 03:03:13;;;;;;;7.47;1.52;;;;;;;10.19;100.00;101129.91;5058042;28;20140;-78
2022/10/11 03:05:40;;;;;;;9.20;2.13;;;;;;;10.16;100.00;101132.63;5053054;28;20128;-76
2022/10/11 03:08:08;;;;;;;13.32;1.92;;;;;;;9.99;100.00;101108.50;5054661;28;20045;-77
2022/10/11 03:10:35;;;;;;;7.75;1.55;;;;;;;10.08;100.00;101138.16;5051480;28;20053;-82
2022/10/11 03:13:02;;;;;;;9.73;1.67;;;;;;;9.94;100.00;101113.06;5050084;28;20136;-85
2022/10/11 03:15:29;;;;;;;8.10;1.98;;;;;;;10.03;100.00;101134.81;5054045;28;20087;-74
2022/10/11 03:17:56;;;;;;;12.85;2.00;;;;;;;9.98;100.00;101149.97;5052180;28;20144;-83
2022/10/11 03:20:23;;;;;;;10.25;1.75;;;;;;;9.96;100.00;101141.22;5059282;28;20052;-79
2022/10/11 03:22:50;;;;;;;10.15;1.77;;;;;;;9.85;100.00;101132.78;5057049;28;20052;-78
2022/10/11 03:25:17;;;;;;;8.45;1.58;;;;;;;9.91;100.00;101143.16;5059652;28;20132;-83
2022/10/11 03:27:43;;;;;;;6.90;1.60;;;;;;;9.84;100.00;101144.25;5057514;28;20053;-75
2022/10/11 03:30:11;;;;;;;8.00;1.40;;;;;;;9.70;99.66;101136.78;5052188;28;20047;-80
2022/10/11 03:32:43;;;;;;;7.25;1.50;;;;;;;9.70;99.74;101130.63;5047951;28;20058;-77
2022/10/11 03:35:09;;;;;;;12.85;1.75;;;;;;;9.79;100.00;101159.41;5049295;28;20060;-77
2022/10/11 03:37:36;;;;;;;13.30;2.20;;;;;;;9.76;100.00;101140.97;5048906;28;20040;-78
2022/10/11 03:40:05;;;;;;;9.30;1.83;;;;;;;9.81;100.00;101163.75;5049315;28;20464;-78
2022/10/11 03:42:31;;;;;;;6.78;1.55;;;;;;;9.77;98.20;101156.81;5048718;28;20045;-81
2022/10/11 03:45:00;;;;;;;7.55;1.67;;;;;;;9.77;98.05;101162.09;5054082;28;20405;-78
2022/10/11 03:47:30;;;;;;;12.75;1.95;;;;;;;9.62;98.00;101149.34;5048535;28;20149;-80
2022/10/11 03:49:57;;;;;;;8.30;1.52;;;;;;;9.71;98.53;101164.09;5049968;28;20105;-79
2022/10/11 03:52:23;;;;;;;9.80;1.90;;;;;;;9.53;98.40;101139.06;5053416;28;20033;-80
2022/10/11 03:54:50;;;;;;;11.57;1.58;;;;;;;9.55;99.39;101149.59;5052811;28;20713;-83
2022/10/11 03:57:17;;;;;;;9.18;1.60;;;;;;;9.57;98.87;101166.28;5052207;28;20136;-75
2022/10/11 03:59:44;;;;;;;9.35;1.90;;;;;;;9.63;96.88;101174.03;5044230;28;20588;-77
2022/10/11 04:02:10;;;;;;;9.15;1.58;;;;;;;9.61;96.18;101175.84;5048474;28;20045;-80
2022/10/11 04:04:37;;;;;;;9.20;1.55;;;;;;;9.63;96.06;101174.03;5052675;28;20048;-77
2022/10/11 04:07:04;;;;;;;9.70;1.70;;;;;;;9.62;96.46;101182.88;5043162;28;20052;-78
2022/10/11 04:09:31;;;;;;;5.78;1.08;;;;;;;9.55;96.47;101176.91;5056252;28;20064;-82
2022/10/11 04:11:57;;;;;;;6.43;1.50;;;;;;;9.55;97.71;101178.69;5052622;28;20908;-80
2022/10/11 04:14:25;;;;;;;9.05;1.50;;;;;;;9.40;98.50;101166.81;5050556;28;20120;-78
2022/10/11 04:16:51;;;;;;;10.50;1.55;;;;;;;9.36;98.45;101159.88;5050957;28;20044;-82
2022/10/11 04:19:21;;;;;;;11.10;2.10;;;;;;;9.45;99.12;101183.38;5050512;28;20529;-73
2022/10/11 04:21:48;;;;;;;13.38;1.52;;;;;;;9.24;99.21;101165.53;5054683;28;20055;-81
2022/10/11 04:24:14;;;;;;;14.43;1.73;;;;;;;9.37;98.02;101188.03;5057445;28;20045;-77
2022/10/11 04:26:41;;;;;;;10.02;1.48;;;;;;;9.30;97.55;101187.34;5054231;28;20045;-77
2022/10/11 04:29:07;;;;;;;6.20;1.35;;;;;;;9.27;96.73;101183.94;5053107;28;20063;-76
2022/10/11 04:31:34;;;;;;;8.95;1.73;;;;;;;9.32;97.76;101189.94;5053907;28;21163;-77
2022/10/11 04:34:01;;;;;;;10.75;1.75;;;;;;;9.29;97.11;101192.66;5053304;28;20052;-81
2022/10/11 04:36:27;;;;;;;14.73;1.65;;;;;;;9.27;96.56;101195.38;5046311;28;20328;-78
2022/10/11 04:38:55;;;;;;;12.85;1.88;;;;;;;9.26;95.63;101200.69;5050337;28;20073;-81
2022/10/11 04:41:21;;;;;;;10.05;1.65;;;;;;;9.24;95.65;101208.66;5049252;28;20160;-77
2022/10/11 04:43:48;;;;;;;9.85;2.08;;;;;;;9.17;95.87;101211.50;5054185;28;20520;-83
2022/10/11 04:46:15;;;;;;;9.40;1.83;;;;;;;9.18;96.23;101214.13;5050293;28;20060;-80
2022/10/11 04:48:41;;;;;;;5.97;1.58;;;;;;;9.09;97.00;101193.25;5053704;28;20079;-80
2022/10/11 04:51:08;;;;;;;11.50;2.40;;;;;;;9.22;96.21;101214.91;5056543;28;20525;-78
2022/10/11 04:53:34;;;;;;;11.73;1.60;;;;;;;9.02;95.62;101199.59;5051467;28;20132;-80
2022/10/11 04:56:09;;;;;;;10.38;1.92;;;;;;;9.09;97.10;101209.97;5048851;28;20134;-81
2022/10/11 04:58:39;;;;;;;8.90;2.20;;;;;;;9.08;97.01;101207.38;5050938;28;20096;-83
2022/10/11 05:01:07;;;;;;;11.40;1.67;;;;;;;9.21;97.64;101236.94;5048153;28;20140;-79
2022/10/11 05:03:34;;;;;;;6.53;1.55;;;;;;;9.13;98.31;101237.16;5044883;28;20113;-84
2022/10/11 05:06:01;;;;;;;13.98;1.73;;;;;;;9.06;98.64;101225.03;5049467;28;20056;-77
2022/10/11 05:08:31;;;;;;;11.20;1.67;;;;;;;9.16;98.34;101237.06;5051691;28;20044;-78
2022/10/11 05:11:06;;;;;;;6.68;1.42;;;;;;;8.98;97.73;101217.31;5031549;28;20091;-78
2022/10/11 05:13:34;;;;;;;9.20;1.75;;;;;;;9.06;98.17;101243.53;5051723;28;20556;-81
2022/10/11 05:16:01;;;;;;;9.38;1.95;;;;;;;8.84;97.43;101216.81;5030763;28;20049;-80
2022/10/11 05:18:34;;;;;;;6.88;1.60;;;;;;;8.95;97.78;101254.41;5047910;28;20045;-80
2022/10/11 05:21:13;;;;;;;9.10;1.80;;;;;;;8.93;97.78;101252.69;5048398;28;20059;-73
2022/10/11 05:23:40;;;;;;;8.38;1.33;;;;;;;8.89;97.33;101258.97;5048108;28;20051;-75
2022/10/11 05:26:07;;;;;;;8.88;1.70;;;;;;;8.83;97.64;101244.13;5043661;28;20501;-83
2022/10/11 05:28:34;;;;;;;8.23;2.15;;;;;;;8.81;98.10;101248.63;5049794;28;20086;-82
2022/10/11 05:31:01;;;;;;;9.38;1.67;;;;;;;8.80;97.76;101254.81;5043965;28;20044;-80
2022/10/11 05:33:27;;;;;;;8.40;1.63;;;;;;;8.74;97.89;101261.09;5053926;28;20560;-82
2022/10/11 05:35:54;;;;;;;9.57;1.98;;;;;;;8.66;98.57;101252.50;5046307;28;20079;-76
2022/10/11 05:38:21;;;;;;;13.55;2.03;;;;;;;8.58;99.15;101249.19;5045455;28;20144;-81
2022/10/11 05:40:48;;;;;;;10.15;2.03;;;;;;;8.67;98.82;101277.13;5045083;28;20152;-81
2022/10/11 05:43:15;;;;;;;9.13;1.60;;;;;;;8.65;99.99;101276.31;5047925;28;20119;-81
2022/10/11 05:45:43;;;;;;;12.88;1.67;;;;;;;8.48;100.00;101260.03;5042520;28;20041;-80
2022/10/11 05:48:10;;;;;;;12.63;1.83;;;;;;;8.48;100.00;101244.19;5048718;28;20055;-75
2022/10/11 05:50:38;;;;;;;11.57;2.22;;;;;;;8.64;100.00;101280.72;5045487;28;20577;-82
2022/10/11 05:53:05;;;;;;;10.02;2.17;;;;;;;8.51;100.00;101268.72;5048572;28;20379;-84
2022/10/11 05:55:40;;;;;;;11.90;2.13;;;;;;;8.60;100.00;101291.41;5043989;28;20180;-81
2022/10/11 05:58:11;;;;;;;9.35;1.30;;;;;;;8.58;100.00;101291.44;5043008;28;20052;-82
2022/10/11 06:00:37;;;;;;;13.02;1.95;;;;;;;8.56;100.00;101295.88;5041109;28;20053;-77
2022/10/11 06:03:05;;;;;;;11.35;1.90;;;;;;;8.58;100.00;101295.84;5050425;28;20057;-82
2022/10/11 06:05:36;;;;;;;10.43;1.80;;;;;;;8.56;100.00;101298.50;5052286;28;20394;-78
2022/10/11 06:08:04;;;;;;;11.98;1.70;;;;;;;8.62;100.00;101305.44;5053875;28;20438;-76
2022/10/11 06:10:31;;;;;;;13.38;2.15;;;;;;;8.61;100.00;101307.19;5047509;28;20401;-81
2022/10/11 06:12:58;;;;;;;12.88;2.00;;;;;;;8.64;100.00;101308.91;5052647;28;20131;-78
2022/10/11 06:15:25;;;;;;;7.80;1.95;;;;;;;8.60;100.00;101310.75;5047200;28;20052;-75
2022/10/11 06:17:51;;;;;;;12.27;2.28;;;;;;;8.60;100.00;101317.78;5046981;28;20112;-79
2022/10/11 06:20:18;;;;;;;13.70;2.40;;;;;;;8.61;100.00;101322.19;5045376;28;20080;-79
2022/10/11 06:22:45;;;;;;;10.25;2.05;;;;;;;8.60;100.00;101323.06;5049068;28;20052;-82
2022/10/11 06:25:11;;;;;;;9.73;2.05;;;;;;;8.66;100.00;101330.81;5047200;28;20067;-80
2022/10/11 06:27:38;;;;;;;12.38;1.77;;;;;;;8.64;100.00;101317.69;5048858;28;20079;-76
2022/10/11 06:30:06;;;;;;;10.25;2.00;;;;;;;8.69;100.00;101334.28;5048822;28;20100;-81
2022/10/11 06:32:32;;;;;;;10.70;1.70;;;;;;;8.69;100.00;101334.28;5050873;28;20057;-78
2022/10/11 06:34:59;;;;;;;9.88;2.00;;;;;;;8.72;100.00;101342.13;5049055;28;20059;-78
2022/10/11 06:37:26;;;;;;;10.75;2.00;;;;;;;8.74;100.00;101350.00;5049128;28;20485;-80
2022/10/11 06:39:52;;;;;;;11.40;1.90;;;;;;;8.74;100.00;101340.31;5050510;28;20074;-73
2022/10/11 06:42:19;;;;;;;15.43;2.42;;;;;;;8.74;100.00;101329.75;5051117;28;20051;-81
2022/10/11 06:44:45;;;;;;;10.48;2.25;;;;;;;8.92;100.00;101351.34;5055762;28;20409;-71
2022/10/11 06:47:12;;;;;;;10.48;1.67;;;;;;;8.99;98.19;101356.41;5067589;28;20084;-73
2022/10/11 06:49:38;;;;;;;11.40;2.25;;;;;;;8.97;97.79;101350.28;5053547;28;20041;-75
2022/10/11 06:52:05;;;;;;;14.43;2.13;;;;;;;9.16;96.19;101363.91;5050901;28;20418;-78
2022/10/11 06:54:32;;;;;;;10.50;2.10;;;;;;;9.24;96.11;101361.09;5049207;28;20049;-79
2022/10/11 06:56:58;;;;;;;7.30;1.65;;;;;;;9.40;95.98;101373.88;5031961;28;20770;-79
2022/10/11 06:59:25;;;;;;;9.80;2.45;;;;;;;9.56;93.61;101368.16;5043976;28;20107;-73
2022/10/11 07:01:51;;;;;;;9.73;1.90;;;;;;;9.59;92.50;101358.38;5029027;28;20057;-79
2022/10/11 07:04:18;;;;;;;9.30;1.70;;;;;;;9.84;91.86;101374.41;5049273;28;20036;-75
2022/10/11 07:06:45;;;;;;;13.00;2.10;;;;;;;10.01;91.08;101374.81;5047610;28;20056;-77
2022/10/11 07:09:11;;;;;;;16.83;2.38;;;;;;;10.18;90.04;101363.72;5049741;28;20048;-75
2022/10/11 07:11:38;;;;;;;11.45;2.47;;;;;;;10.53;87.42;101386.50;5042072;28;20053;-80
2022/10/11 07:14:06;;;;;;;8.82;1.52;;;;;;;10.73;87.35;101383.22;5048120;28;20895;-82
2022/10/11 07:16:35;;;;;;;9.30;1.85;;;;;;;10.75;85.72;101355.75;5047241;28;20053;-80
2022/10/11 07:19:03;;;;;;;13.65;2.03;;;;;;;11.16;84.91;101396.81;5049885;28;20049;-72
2022/10/11 07:21:33;;;;;;;17.98;5.47;;;;;;;11.14;84.23;101364.19;5043812;28;20049;-76
2022/10/11 07:24:00;;;;;;;10.38;1.67;;;;;;;11.35;83.35;101402.34;5050373;28;20041;-78
2022/10/11 07:26:28;;;;;;;8.57;2.20;;;;;;;11.35;82.24;101373.19;5045097;28;20049;-80
2022/10/11 07:28:59;;;;;;;12.15;1.77;;;;;;;11.57;80.48;101402.47;5048807;28;20060;-81
2022/10/11 07:31:26;;;;;;;11.25;1.70;;;;;;;11.53;79.94;101371.66;5046880;28;20064;-80
2022/10/11 07:33:53;;;;;;;13.40;2.28;;;;;;;11.70;79.31;101379.03;5043298;28;20071;-78
2022/10/11 07:36:21;;;;;;;7.35;1.85;;;;;;;11.93;78.12;101397.69;5044152;28;20075;-80
2022/10/11 07:38:49;;;;;;;13.25;1.60;;;;;;;11.92;76.98;101402.13;5045108;28;20045;-76
2022/10/11 07:41:16;;;;;;;11.00;1.90;;;;;;;12.03;78.11;101404.38;5046786;28;20069;-75
2022/10/11 07:43:42;;;;;;;10.75;1.98;;;;;;;12.11;77.24;101410.28;5047989;28;20766;-72
2022/10/11 07:46:10;;;;;;;10.98;2.17;;;;;;;12.25;78.09;101405.31;5045856;28;20045;-77
2022/10/11 07:48:37;;;;;;;11.40;2.00;;;;;;;12.37;77.83;101400.47;5050026;28;20500;-77
2022/10/11 07:51:08;;;;;;;10.23;1.80;;;;;;;12.41;76.41;101410.06;5045334;28;20493;-74
2022/10/11 07:53:42;;;;;;;11.10;2.03;;;;;;;12.41;75.93;101410.06;5052270;28;20049;-77
2022/10/11 07:56:11;;;;;;;11.35;1.67;;;;;;;12.42;77.75;101391.41;5049798;28;20425;-74
2022/10/11 07:58:39;;;;;;;11.68;1.95;;;;;;;12.57;77.83;101400.56;5050274;28;20083;-76
2022/10/11 08:01:07;;;;;;;12.35;1.95;;;;;;;12.62;76.24;101388.81;5031400;28;20499;-77
2022/10/11 08:03:34;;;;;;;13.65;2.00;;;;;;;12.84;76.24;101409.22;5046282;28;20382;-77
2022/10/11 08:06:03;;;;;;;8.55;1.98;;;;;;;12.98;75.87;101406.88;5046113;28;20312;-79
2022/10/11 08:08:31;;;;;;;12.87;1.57;;;;;;;13.08;74.41;101407.34;5047118;28;20084;-76
2022/10/11 08:10:58;;;;;;;6.43;1.30;;;;;;;13.09;73.89;101403.75;5042314;28;20075;-72
2022/10/11 08:13:25;;;;;;;11.13;2.03;;;;;;;13.00;73.38;101383.75;5036836;28;20642;-75
2022/10/11 08:15:52;;;;;;;8.07;1.35;;;;;;;13.16;72.10;101414.13;5041887;28;20045;-77
2022/10/11 08:18:19;;;;;;;9.30;2.17;;;;;;;13.00;73.38;101394.38;5043298;28;20057;-74
2022/10/11 08:20:46;;;;;;;16.10;2.00;;;;;;;13.02;73.55;101413.81;5036317;28;20094;-76
2022/10/11 08:23:13;;;;;;;12.25;1.88;;;;;;;12.73;73.60;101411.44;5041111;28;20056;-80
2022/10/11 08:25:42;;;;;;;11.90;1.90;;;;;;;12.38;76.19;101423.44;5036441;28;20141;-76
2022/10/11 08:28:14;;;;;;;13.67;2.00;;;;;;;12.19;77.95;101415.28;5047778;28;20064;-79
2022/10/11 08:30:47;;;;;;;14.00;1.88;;;;;;;12.05;78.87;101402.53;5039904;28;20041;-77
2022/10/11 08:33:13;;;;;;;11.55;2.05;;;;;;;12.00;79.28;101424.84;5040113;28;20612;-76
2022/10/11 08:35:40;;;;;;;8.73;1.83;;;;;;;11.90;79.91;101421.69;5040424;28;20372;-72
2022/10/11 08:38:06;;;;;;;8.85;1.80;;;;;;;11.87;79.69;101413.81;5052857;28;20045;-76
2022/10/11 08:40:34;;;;;;;12.25;2.13;;;;;;;11.87;80.49;101417.34;5046674;28;20979;-78
2022/10/11 08:43:10;;;;;;;12.55;1.80;;;;;;;11.90;81.31;101421.69;5045980;28;20072;-75
2022/10/11 08:45:49;;;;;;;11.07;1.67;;;;;;;11.97;81.77;101415.22;5045314;28;20116;-80
2022/10/11 08:48:35;;;;;;;10.02;2.30;;;;;;;12.08;81.61;101421.00;5039924;28;20486;-78
2022/10/11 08:51:13;;;;;;;8.27;1.65;;;;;;;12.17;81.02;101419.78;5038394;28;20050;-79
2022/10/11 08:53:58;;;;;;;9.27;1.77;;;;;;;12.22;79.78;101421.38;5046401;28;20136;-74
2022/10/11 08:56:35;;;;;;;15.27;2.25;;;;;;;12.33;80.38;101428.91;5039597;28;20102;-79
2022/10/11 08:59:16;;;;;;;16.30;1.88;;;;;;;12.41;78.00;101426.00;5041418;28;20060;-76
2022/10/11 09:01:48;;;;;;;16.58;2.55;;;;;;;12.43;78.24;101402.88;5039489;28;20132;-77
2022/10/11 09:04:17;;;;;;;10.75;1.83;;;;;;;12.62;78.39;101419.81;5038807;28;20113;-80
2022/10/11 09:06:55;;;;;;;14.30;2.22;;;;;;;12.65;77.37;101406.41;5046955;28;20045;-76
2022/10/11 09:09:30;;;;;;;11.70;2.08;;;;;;;12.80;76.85;101418.25;5050929;28;20041;-78
2022/10/11 09:12:15;;;;;;;9.50;1.48;;;;;;;12.76;76.34;101401.53;5047485;28;20051;-80
2022/10/11 09:14:47;;;;;;;11.82;2.33;;;;;;;12.81;75.42;101425.28;5054957;28;20143;-78
2022/10/11 09:17:41;;;;;;;7.68;1.60;;;;;;;12.69;76.73;101408.03;5045453;28;20068;-82
2022/10/11 09:20:32;;;;;;;13.55;1.73;;;;;;;12.78;75.83;101423.59;5055921;28;20132;-75
2022/10/11 09:23:27;;;;;;;15.70;2.38;;;;;;;12.86;76.19;101423.31;5057691;28;20124;-75
2022/10/11 09:26:01;;;;;;;13.27;1.90;;;;;;;12.79;75.27;101398.75;5063636;28;20112;-76
2022/10/11 09:28:56;;;;;;;10.68;1.77;;;;;;;12.85;75.25;101408.28;5047979;28;20041;-79
2022/10/11 09:31:27;;;;;;;12.32;2.50;;;;;;;12.92;75.49;101402.66;5030879;28;20053;-73
2022/10/11 09:33:54;;;;;;;9.55;1.70;;;;;;;12.98;74.04;101418.38;5033688;28;20077;-77
2022/10/11 09:36:54;;;;;;;14.57;2.20;;;;;;;12.94;74.64;101421.19;5041757;28;20068;-75
2022/10/11 09:39:33;;;;;;;13.07;2.15;;;;;;;12.88;74.97;101405.53;5031925;28;20041;-77
2022/10/11 09:42:06;;;;;;;15.45;2.38;;;;;;;12.93;75.53;101384.91;5032536;28;20049;-71
2022/10/11 09:44:37;;;;;;;14.15;1.83;;;;;;;13.13;74.97;101406.22;5034567;28;20045;-73
2022/10/11 09:47:05;;;;;;;8.48;1.67;;;;;;;13.06;74.36;101387.94;5037772;28;20052;-71
2022/10/11 09:49:43;;;;;;;8.90;1.80;;;;;;;13.16;74.31;101421.25;5034087;28;20147;-76
2022/10/11 09:52:15;;;;;;;12.40;1.90;;;;;;;13.21;74.67;101413.94;5041304;28;20062;-74
2022/10/11 09:54:54;;;;;;;11.32;1.65;;;;;;;13.16;74.33;101399.97;5033593;28;20049;-72
2022/10/11 09:57:23;;;;;;;11.05;1.60;;;;;;;13.27;71.57;101413.66;5040234;28;20044;-79
2022/10/11 10:00:09;;;;;;;10.98;1.85;;;;;;;13.13;68.32;101390.28;5049621;28;20068;-76
2022/10/11 10:02:42;;;;;;;9.38;1.38;;;;;;;13.30;70.32;101414.41;5053029;28;20091;-81
2022/10/11 10:05:09;;;;;;;13.02;2.05;;;;;;;13.38;70.78;101399.94;5048388;28;20083;-72
2022/10/11 10:07:39;;;;;;;9.73;1.63;;;;;;;13.53;69.58;101386.84;5056089;28;20087;-79
2022/10/11 10:10:31;;;;;;;18.83;2.55;;;;;;;13.81;69.17;101413.09;5044841;28;20049;-79
2022/10/11 10:13:01;;;;;;;9.95;2.35;;;;;;;13.89;67.14;101413.63;5041826;28;20044;-76
2022/10/11 10:15:33;;;;;;;8.98;1.70;;;;;;;13.85;67.25;101408.50;5049011;28;20056;-77
2022/10/11 10:18:00;;;;;;;11.10;1.58;;;;;;;13.73;65.53;101385.94;5045670;28;20055;-82
2022/10/11 10:20:31;;;;;;;8.73;1.50;;;;;;;13.81;65.81;101398.94;5043307;28;20133;-79
2022/10/11 10:23:26;;;;;;;8.95;1.88;;;;;;;13.87;67.05;101411.94;5034868;28;20052;-75
2022/10/11 10:26:14;;;;;;;5.68;1.38;;;;;;;13.93;68.51;101409.88;5025221;28;20045;-73
2022/10/11 10:28:59;;;;;;;8.73;1.85;;;;;;;14.09;69.10;101399.41;5030033;28;20048;-76
2022/10/11 10:31:37;;;;;;;7.47;1.48;;;;;;;14.19;67.33;101378.53;5030539;28;22120;-78
2022/10/11 10:34:32;;;;;;;8.90;2.08;;;;;;;14.28;66.22;101391.44;5039663;28;21743;-78
2022/10/11 10:37:46;;;;;;;15.90;1.80;;;;;;;14.07;65.79;101365.78;5036699;28;20044;-76
2022/10/11 10:40:18;;;;;;;9.20;1.85;;;;;;;14.27;66.11;101390.56;5034004;28;20437;-74
2022/10/11 10:42:45;;;;;;;13.63;2.20;;;;;;;14.25;64.00;101371.13;5034112;28;20056;-74
2022/10/11 10:45:17;;;;;;;10.68;2.40;;;;;;;14.45;64.81;101396.88;5025052;28;20053;-78
2022/10/11 10:47:59;;;;;;;9.73;1.60;;;;;;;14.42;64.21;101397.03;5024761;28;20056;-74
2022/10/11 10:50:40;;;;;;;10.75;1.73;;;;;;;14.23;60.63;101394.31;5023313;28;20049;-76
2022/10/11 10:53:28;;;;;;;9.30;1.58;;;;;;;14.26;61.19;101399.50;5038140;28;20041;-79
2022/10/11 10:56:26;;;;;;;10.35;1.90;;;;;;;14.41;61.03;101389.97;5031716;28;20049;-77
2022/10/11 10:59:14;;;;;;;8.15;1.70;;;;;;;14.57;60.08;101396.28;5039291;28;20048;-81
2022/10/11 11:01:57;;;;;;;9.23;1.77;;;;;;;14.45;60.12;101380.03;5042449;28;20076;-77
2022/10/11 11:04:53;;;;;;;8.25;1.35;;;;;;;14.51;59.71;101393.03;5045692;28;20508;-77
2022/10/11 11:07:22;;;;;;;7.90;1.60;;;;;;;14.53;59.39;101404.50;5046301;28;20099;-80
2022/10/11 11:10:15;;;;;;;10.45;1.83;;;;;;;14.51;61.87;101385.03;5045916;28;20507;-74
2022/10/11 11:13:16;;;;;;;14.60;2.20;;;;;;;14.60;62.17;101392.63;5037380;28;20061;-78
2022/10/11 11:16:05;;;;;;;;;;;;;;;14.68;61.97;101388.63;5044712;28;20050;-75
2022/10/11 11:19:10;;;;;;;10.13;2.03;;;;;;;14.82;59.35;101384.44;5044027;28;19924;-74
2022/10/11 11:21:51;;;;;;;7.95;1.63;;;;;;;14.84;56.69;101388.75;5043659;28;20052;-80
2022/10/11 11:24:26;;;;;;;12.02;2.53;;;;;;;14.86;56.04;101381.56;5042308;28;20041;-80
2022/10/11 11:27:08;;;;;;;7.03;1.92;;;;;;;15.04;57.54;101382.44;5047805;28;20056;-77
2022/10/11 11:29:59;;;;;;;7.97;2.42;;;;;;;15.05;55.08;101379.72;5029934;28;20075;-78
2022/10/11 11:32:44;;;;;;;8.83;1.70;;;;;;;15.08;56.47;101368.91;5031518;28;20060;-78
2022/10/11 11:35:53;;;;;;;5.43;1.40;;;;;;;15.20;56.33;101377.22;5035212;28;20091;-81
2022/10/11 11:38:40;;;;;;;7.50;1.40;;;;;;;15.33;53.73;101362.28;5039999;28;20506;-78
2022/10/11 11:41:20;;;;;;;8.23;1.65;;;;;;;15.55;54.46;101367.41;5029759;28;20041;-77
2022/10/11 11:43:55;;;;;;;6.80;2.10;;;;;;;15.46;52.59;101342.03;5033310;28;20053;-74